createdAt,value
2022-10-11T00:01:43.350Z,90.20
2022-10-11T00:04:24.323Z,90.42
2022-10-11T00:07:04.412Z,90.59
2022-10-11T00:09:43.973Z,90.85
2022-10-11T00:12:25.777Z,90.86
2022-10-11T00:15:09.070Z,91.12
2022-10-11T00:17:49.915Z,91.27
2022-10-11T00:20:30.109Z,91.30
2022-10-11T00:23:25.401Z,91.31
2022-10-11T00:26:08.763Z,91.31
2022-10-11T00:28:48.789Z,91.61
2022-10-11T00:31:32.081Z,91.23
2022-10-11T00:34:17.766Z,91.34
2022-10-11T00:36:58.034Z,91.44
2022-10-11T00:39:37.825Z,91.08
2022-10-11T00:42:18.645Z,90.66
2022-10-11T00:45:32.995Z,89.29
2022-10-11T00:48:19.696Z,89.13
2022-10-11T00:51:03.994Z,88.14
2022-10-11T00:53:45.137Z,87.37
2022-10-11T00:56:31.807Z,87.76
2022-10-11T00:59:18.707Z,88.16
2022-10-11T01:01:58.665Z,88.56
2022-10-11T01:04:38.528Z,89.22
2022-10-11T01:07:20.915Z,89.59
2022-10-11T01:10:03.502Z,90.62
2022-10-11T01:12:56.093Z,90.57
2022-10-11T01:15:43.477Z,91.02
2022-10-11T01:18:31.996Z,91.22
2022-10-11T01:21:26.655Z,91.24
2022-10-11T01:24:44.848Z,91.88
2022-10-11T01:27:43.821Z,91.86
2022-10-11T01:30:30.181Z,91.95
2022-10-11T01:33:19.631Z,92.22
2022-10-11T01:36:08.154Z,91.95
2022-10-11T01:38:55.093Z,92.17
2022-10-11T01:41:39.460Z,91.98
2022-10-11T01:44:21.237Z,92.33
2022-10-11T01:47:02.419Z,91.99
2022-10-11T01:49:42.238Z,90.24
2022-10-11T01:52:22.401Z,90.07
2022-10-11T01:55:17.545Z,91.53
2022-10-11T01:58:18.924Z,91.56
2022-10-11T02:01:09.617Z,92.09
2022-10-11T02:03:53.731Z,92.19
2022-10-11T02:06:41.009Z,91.70
2022-10-11T02:09:27.802Z,91.90
2022-10-11T02:12:13.273Z,91.32
2022-10-11T02:14:56.961Z,90.95
2022-10-11T02:17:41.631Z,90.61
2022-10-11T02:20:26.098Z,90.43
2022-10-11T02:23:11.771Z,90.73
2022-10-11T02:25:55.478Z,90.78
2022-10-11T02:28:39.347Z,91.20
2022-10-11T02:31:21.904Z,90.65
2022-10-11T02:34:13.280Z,89.45
2022-10-11T02:37:00.449Z,89.29
2022-10-11T02:39:46.893Z,89.98
2022-10-11T02:42:30.895Z,91.01
2022-10-11T02:45:18.077Z,90.35
2022-10-11T02:47:59.994Z,89.35
2022-10-11T02:50:41.586Z,89.36
2022-10-11T02:53:22.787Z,89.56
2022-10-11T02:56:03.523Z,90.85
2022-10-11T02:58:44.606Z,91.44
2022-10-11T03:01:24.431Z,91.61
2022-10-11T03:04:04.151Z,91.18
2022-10-11T03:06:44.046Z,90.55
2022-10-11T03:09:24.316Z,90.21
2022-10-11T03:12:05.497Z,91.41
2022-10-11T03:14:45.051Z,91.59
2022-10-11T03:17:36.298Z,91.66
2022-10-11T03:20:17.816Z,90.84
2022-10-11T03:22:58.779Z,90.57
2022-10-11T03:25:38.864Z,90.45
2022-10-11T03:28:18.461Z,91.14
2022-10-11T03:30:59.079Z,90.72
2022-10-11T03:33:39.658Z,90.64
2022-10-11T03:36:19.445Z,90.81
2022-10-11T03:39:00.581Z,90.25
2022-10-11T03:41:40.501Z,89.29
2022-10-11T03:44:20.438Z,90.43
2022-10-11T03:47:02.282Z,90.05
2022-10-11T03:49:43.871Z,90.15
2022-10-11T03:52:24.643Z,90.44
2022-10-11T03:55:04.870Z,90.49
2022-10-11T03:57:45.854Z,89.61
2022-10-11T04:00:25.718Z,89.29
2022-10-11T04:03:05.711Z,90.26
2022-10-11T04:05:45.228Z,89.84
2022-10-11T04:08:44.271Z,89.93
2022-10-11T04:11:24.115Z,89.84
2022-10-11T04:14:03.893Z,89.45
2022-10-11T04:16:45.232Z,90.44
2022-10-11T04:19:27.138Z,90.50
2022-10-11T04:22:08.326Z,90.87
2022-10-11T04:24:47.865Z,91.08
2022-10-11T04:27:30.187Z,91.21
2022-10-11T04:30:12.718Z,91.17
2022-10-11T04:32:54.740Z,91.27
2022-10-11T04:35:35.124Z,91.01
2022-10-11T04:38:15.067Z,91.57
2022-10-11T04:40:54.705Z,90.99
2022-10-11T04:43:34.534Z,87.69
2022-10-11T04:46:15.928Z,87.28
2022-10-11T04:48:56.155Z,88.29
2022-10-11T04:51:37.195Z,89.33
2022-10-11T04:54:18.726Z,89.35
2022-10-11T04:56:58.278Z,88.08
2022-10-11T04:59:38.099Z,87.86
2022-10-11T05:02:18.946Z,88.49
2022-10-11T05:04:59.820Z,89.27
2022-10-11T05:07:40.705Z,89.75
2022-10-11T05:10:20.644Z,90.11
2022-10-11T05:13:00.322Z,89.71
2022-10-11T05:15:40.227Z,88.88
2022-10-11T05:18:20.952Z,87.58
2022-10-11T05:21:02.528Z,87.62
2022-10-11T05:23:43.101Z,88.07
2022-10-11T05:26:23.767Z,87.85
2022-10-11T05:29:04.426Z,88.37
2022-10-11T05:31:45.493Z,88.02
2022-10-11T05:34:25.509Z,87.98
2022-10-11T05:37:05.085Z,86.99
2022-10-11T05:39:45.021Z,86.60
2022-10-11T05:42:26.585Z,86.99
2022-10-11T05:45:08.688Z,87.33
2022-10-11T05:47:49.014Z,88.12
2022-10-11T05:50:28.922Z,88.91
2022-10-11T05:53:08.694Z,88.60
2022-10-11T05:55:48.409Z,87.97
2022-10-11T05:58:28.706Z,86.36
2022-10-11T06:01:18.063Z,87.24
2022-10-11T06:03:59.072Z,87.60
2022-10-11T06:06:38.866Z,87.23
2022-10-11T06:09:18.790Z,87.32
2022-10-11T06:11:58.862Z,86.22
2022-10-11T06:14:53.638Z,84.94
2022-10-11T06:17:53.862Z,85.56
2022-10-11T06:20:48.482Z,85.49
2022-10-11T06:23:56.845Z,85.75
2022-10-11T06:27:09.590Z,85.35
2022-10-11T06:30:08.290Z,85.65
2022-10-11T06:33:20.444Z,84.87
2022-10-11T06:36:17.822Z,85.32
2022-10-11T06:39:11.967Z,86.37
2022-10-11T06:42:14.685Z,86.12
2022-10-11T06:45:21.297Z,87.85
2022-10-11T06:48:18.326Z,86.76
2022-10-11T06:51:12.474Z,85.61
2022-10-11T06:54:18.404Z,86.02
2022-10-11T06:57:16.944Z,85.89
2022-10-11T07:00:15.893Z,85.52
2022-10-11T07:03:23.405Z,84.72
2022-10-11T07:06:21.540Z,83.27
2022-10-11T07:09:24.837Z,82.48
2022-10-11T07:12:23.106Z,82.46
2022-10-11T07:15:32.082Z,83.05
2022-10-11T07:18:29.603Z,83.66
2022-10-11T07:21:28.489Z,81.52
2022-10-11T07:24:25.846Z,81.59
2022-10-11T07:27:23.688Z,81.81
2022-10-11T07:30:18.807Z,82.28
2022-10-11T07:33:15.538Z,80.70
2022-10-11T07:36:14.182Z,81.90
2022-10-11T07:39:09.869Z,80.41
2022-10-11T07:42:23.154Z,80.25
2022-10-11T07:45:24.139Z,80.17
2022-10-11T07:48:30.098Z,79.98
2022-10-11T07:51:27.422Z,78.39
2022-10-11T07:54:27.655Z,79.00
2022-10-11T07:57:40.977Z,78.28
2022-10-11T08:00:46.799Z,77.81
2022-10-11T08:03:44.814Z,78.87
2022-10-11T08:06:38.558Z,78.51
2022-10-11T08:09:34.107Z,81.47
2022-10-11T08:12:28.500Z,81.47
2022-10-11T08:15:22.811Z,80.04
2022-10-11T08:18:35.402Z,78.38
2022-10-11T08:21:35.609Z,78.09
2022-10-11T08:24:15.008Z,80.61
2022-10-11T08:27:10.409Z,81.75
2022-10-11T08:30:08.834Z,82.47
2022-10-11T08:33:14.958Z,81.86
2022-10-11T08:36:14.083Z,82.74
2022-10-11T08:39:12.916Z,81.39
2022-10-11T08:42:18.147Z,81.12
2022-10-11T08:45:31.967Z,79.09
2022-10-11T08:48:56.602Z,78.60
2022-10-11T08:52:02.634Z,77.50
2022-10-11T08:54:38.316Z,78.16
2022-10-11T08:57:08.183Z,77.53
2022-10-11T08:59:42.492Z,76.38
2022-10-11T09:02:22.713Z,76.85
2022-10-11T09:04:53.313Z,77.11
2022-10-11T09:07:35.484Z,76.20
2022-10-11T09:10:21.460Z,76.51
2022-10-11T09:12:59.554Z,75.10
2022-10-11T09:15:38.042Z,76.23
2022-10-11T09:18:34.253Z,75.06
2022-10-11T09:21:14.967Z,74.74
2022-10-11T09:23:58.637Z,74.38
2022-10-11T09:26:29.919Z,74.12
2022-10-11T09:29:07.191Z,74.06
2022-10-11T09:31:35.307Z,73.26
2022-10-11T09:34:12.116Z,73.79
2022-10-11T09:36:44.568Z,73.59
2022-10-11T09:39:28.262Z,72.93
2022-10-11T09:42:01.913Z,72.94
2022-10-11T09:44:36.798Z,72.35
2022-10-11T09:47:06.137Z,71.58
2022-10-11T09:49:38.613Z,71.23
2022-10-11T09:52:12.502Z,69.93
2022-10-11T09:54:44.080Z,71.09
2022-10-11T09:57:23.877Z,71.96
2022-10-11T10:00:04.921Z,70.25
2022-10-11T10:02:44.144Z,68.85
2022-10-11T10:05:19.396Z,68.86
2022-10-11T10:08:23.040Z,69.44
2022-10-11T10:11:01.724Z,69.14
2022-10-11T10:13:38.543Z,69.83
2022-10-11T10:16:11.620Z,68.38
2022-10-11T10:18:45.232Z,68.71
2022-10-11T10:21:16.896Z,69.06
2022-10-11T10:23:45.507Z,69.45
2022-10-11T10:26:18.467Z,69.01
2022-10-11T10:29:03.764Z,69.28
2022-10-11T10:31:55.264Z,67.63
2022-10-11T10:34:30.787Z,66.68
2022-10-11T10:37:03.559Z,67.28
2022-10-11T10:39:38.276Z,67.79
2022-10-11T10:42:14.890Z,67.72
2022-10-11T10:44:43.326Z,67.17
2022-10-11T10:47:20.753Z,67.22
2022-10-11T10:49:58.397Z,66.51
2022-10-11T10:53:02.452Z,66.15
2022-10-11T10:55:35.967Z,66.96
2022-10-11T10:58:18.746Z,65.76
2022-10-11T11:00:49.956Z,64.97
2022-10-11T11:03:25.209Z,63.60
2022-10-11T11:06:01.769Z,61.95
2022-10-11T11:08:56.681Z,60.21
2022-10-11T11:11:36.034Z,59.90
2022-10-11T11:14:15.334Z,59.45
2022-10-11T11:16:50.151Z,59.62
2022-10-11T11:19:28.596Z,58.65
2022-10-11T11:22:01.973Z,56.42
2022-10-11T11:24:43.637Z,57.96
2022-10-11T11:27:20.568Z,57.35
2022-10-11T11:29:57.414Z,56.70
2022-10-11T11:32:35.401Z,56.18
2022-10-11T11:35:10.660Z,54.83
2022-10-11T11:37:41.624Z,54.71
2022-10-11T11:40:17.615Z,54.14
2022-10-11T11:42:50.150Z,53.90
2022-10-11T11:45:24.727Z,55.73
2022-10-11T11:47:57.855Z,58.19
2022-10-11T11:50:28.673Z,60.77
2022-10-11T11:53:01.859Z,59.62
2022-10-11T11:55:36.776Z,58.24
2022-10-11T11:58:18.421Z,60.00
2022-10-11T12:00:59.349Z,61.62
2022-10-11T12:03:35.128Z,59.52
2022-10-11T12:06:21.193Z,62.92
2022-10-11T12:09:01.707Z,60.45
2022-10-11T12:11:39.599Z,59.77
2022-10-11T12:14:19.238Z,64.23
2022-10-11T12:17:11.737Z,66.53
2022-10-11T12:19:42.081Z,65.38
2022-10-11T12:22:38.827Z,65.09
2022-10-11T12:25:33.213Z,63.27
2022-10-11T12:28:02.924Z,63.56
2022-10-11T12:30:54.541Z,63.63
2022-10-11T12:33:26.023Z,63.30
2022-10-11T12:36:04.123Z,62.19
2022-10-11T12:38:37.813Z,63.71
2022-10-11T12:41:38.052Z,63.33
2022-10-11T12:44:15.354Z,62.10
2022-10-11T12:47:01.824Z,60.59
2022-10-11T12:49:47.428Z,55.81
2022-10-11T12:52:33.614Z,54.94
2022-10-11T12:55:20.013Z,55.97
2022-10-11T12:58:19.115Z,60.38
2022-10-11T13:01:17.955Z,62.65
2022-10-11T13:03:50.903Z,63.28
2022-10-11T13:06:24.942Z,60.79
2022-10-11T13:08:57.403Z,63.91
2022-10-11T13:11:31.793Z,64.80
2022-10-11T13:14:06.487Z,66.70
2022-10-11T13:16:58.484Z,63.70
2022-10-11T13:19:27.729Z,61.93
2022-10-11T13:21:59.704Z,60.30
2022-10-11T13:24:35.630Z,56.96
2022-10-11T13:27:04.884Z,57.03
2022-10-11T13:29:36.067Z,61.44
2022-10-11T13:32:07.940Z,62.42
2022-10-11T13:34:40.815Z,62.22
2022-10-11T13:37:17.475Z,62.84
2022-10-11T13:39:46.734Z,58.94
2022-10-11T13:42:17.356Z,58.66
2022-10-11T13:44:48.167Z,60.84
2022-10-11T13:47:22.877Z,62.17
2022-10-11T13:50:01.761Z,64.23
2022-10-11T13:52:31.185Z,63.15
2022-10-11T13:55:13.580Z,64.83
2022-10-11T13:57:44.871Z,64.75
2022-10-11T14:00:25.936Z,64.46
2022-10-11T14:02:58.139Z,64.37
2022-10-11T14:05:32.996Z,64.58
2022-10-11T14:08:03.713Z,65.26
2022-10-11T14:10:32.181Z,67.61
2022-10-11T14:13:03.817Z,67.97
2022-10-11T14:15:34.517Z,68.07
2022-10-11T14:18:23.487Z,68.42
2022-10-11T14:20:53.270Z,68.36
2022-10-11T14:23:21.396Z,66.15
2022-10-11T14:25:49.403Z,63.80
2022-10-11T14:28:17.537Z,60.44
2022-10-11T14:30:45.586Z,59.09
2022-10-11T14:33:13.846Z,56.76
2022-10-11T14:35:43.290Z,52.88
2022-10-11T14:38:13.068Z,52.89
2022-10-11T14:40:41.102Z,53.45
2022-10-11T14:43:09.088Z,51.04
2022-10-11T14:45:37.484Z,53.90
2022-10-11T14:48:06.141Z,58.23
2022-10-11T14:50:40.523Z,62.15
2022-10-11T14:53:09.952Z,60.58
2022-10-11T14:55:40.808Z,60.87
2022-10-11T14:58:12.325Z,61.79
2022-10-11T15:00:40.694Z,62.13
2022-10-11T15:03:09.602Z,64.75
2022-10-11T15:05:38.762Z,65.04
2022-10-11T15:08:08.034Z,64.59
2022-10-11T15:10:38.264Z,63.10
2022-10-11T15:13:08.858Z,64.06
2022-10-11T15:15:40.899Z,63.35
2022-10-11T15:18:13.208Z,64.58
2022-10-11T15:20:43.049Z,65.08
2022-10-11T15:23:12.146Z,65.51
2022-10-11T15:25:42.104Z,66.61
2022-10-11T15:28:23.535Z,65.37
2022-10-11T15:30:51.816Z,65.62
2022-10-11T15:33:19.849Z,65.65
2022-10-11T15:35:48.047Z,66.12
2022-10-11T15:38:18.672Z,66.05
2022-10-11T15:40:48.847Z,67.05
2022-10-11T15:43:23.509Z,68.87
2022-10-11T15:45:52.890Z,69.70
2022-10-11T15:48:22.839Z,69.61
2022-10-11T15:50:51.595Z,70.44
2022-10-11T15:53:22.664Z,70.89
2022-10-11T15:55:52.748Z,71.05
2022-10-11T15:58:24.059Z,71.44
2022-10-11T16:00:55.846Z,73.00
2022-10-11T16:03:27.333Z,74.15
2022-10-11T16:05:57.332Z,74.04
2022-10-11T16:08:26.992Z,75.38
2022-10-11T16:10:55.571Z,76.19
2022-10-11T16:13:24.913Z,76.36
2022-10-11T16:15:53.252Z,76.62
2022-10-11T16:18:22.299Z,77.04
2022-10-11T16:20:52.538Z,77.83
2022-10-11T16:23:22.279Z,78.13
2022-10-11T16:25:58.040Z,78.98
2022-10-11T16:28:28.850Z,78.90
2022-10-11T16:30:57.717Z,79.53
2022-10-11T16:33:26.715Z,79.34
2022-10-11T16:36:15.465Z,79.91
2022-10-11T16:38:44.114Z,80.28
2022-10-11T16:41:12.304Z,80.53
2022-10-11T16:43:41.653Z,80.72
2022-10-11T16:46:09.699Z,80.73
2022-10-11T16:48:37.823Z,81.05
2022-10-11T16:51:07.189Z,81.67
2022-10-11T16:53:35.716Z,81.46
2022-10-11T16:56:08.242Z,81.57
2022-10-11T16:58:37.549Z,81.91
2022-10-11T17:01:11.135Z,82.07
2022-10-11T17:03:39.639Z,82.36
2022-10-11T17:06:08.998Z,82.30
2022-10-11T17:08:37.717Z,82.82
2022-10-11T17:11:06.246Z,82.72
2022-10-11T17:13:36.148Z,82.80
2022-10-11T17:16:05.276Z,82.93
2022-10-11T17:18:34.990Z,83.09
2022-10-11T17:21:05.301Z,82.86
2022-10-11T17:23:34.791Z,83.07
2022-10-11T17:26:08.618Z,83.22
2022-10-11T17:28:39.466Z,83.23
2022-10-11T17:31:08.935Z,83.33
2022-10-11T17:33:38.966Z,82.81
2022-10-11T17:36:22.197Z,82.64
2022-10-11T17:38:51.435Z,83.41
2022-10-11T17:41:20.010Z,83.26
2022-10-11T17:43:48.300Z,83.47
2022-10-11T17:46:18.196Z,83.68
2022-10-11T17:48:48.267Z,84.00
2022-10-11T17:51:19.882Z,83.77
2022-10-11T17:53:50.741Z,83.71
2022-10-11T17:56:26.746Z,83.93
2022-10-11T17:58:58.015Z,84.10
2022-10-11T18:01:28.605Z,83.93
2022-10-11T18:04:00.461Z,83.94
2022-10-11T18:06:30.777Z,84.16
2022-10-11T18:09:02.449Z,84.24
2022-10-11T18:11:31.832Z,84.34
2022-10-11T18:13:59.907Z,84.11
2022-10-11T18:16:29.702Z,83.72
2022-10-11T18:18:59.791Z,83.92
2022-10-11T18:21:33.985Z,84.54
2022-10-11T18:24:03.745Z,84.50
2022-10-11T18:26:31.856Z,85.06
2022-10-11T18:29:01.599Z,84.93
2022-10-11T18:31:31.899Z,85.47
2022-10-11T18:34:01.367Z,85.61
2022-10-11T18:36:31.546Z,85.79
2022-10-11T18:39:01.395Z,85.39
2022-10-11T18:41:32.133Z,85.33
2022-10-11T18:44:02.840Z,85.10
2022-10-11T18:46:31.747Z,85.51
2022-10-11T18:49:03.176Z,85.49
2022-10-11T18:51:32.983Z,85.60
2022-10-11T18:54:01.910Z,85.66
2022-10-11T18:56:31.571Z,85.60
2022-10-11T18:59:00.202Z,85.45
2022-10-11T19:01:30.052Z,85.20
2022-10-11T19:04:00.164Z,85.23
2022-10-11T19:06:31.932Z,85.69
2022-10-11T19:09:01.978Z,85.27
2022-10-11T19:11:30.050Z,85.13
2022-10-11T19:13:59.314Z,85.46
2022-10-11T19:16:29.869Z,85.57
2022-10-11T19:18:58.715Z,85.71
2022-10-11T19:21:27.411Z,85.54
2022-10-11T19:23:57.810Z,85.61
2022-10-11T19:26:28.899Z,85.70
2022-10-11T19:28:58.251Z,85.95
2022-10-11T19:31:27.218Z,85.54
2022-10-11T19:33:58.022Z,86.01
2022-10-11T19:36:26.717Z,86.12
2022-10-11T19:38:56.806Z,85.93
2022-10-11T19:41:27.716Z,85.74
2022-10-11T19:43:58.061Z,85.66
2022-10-11T19:46:44.875Z,85.69
2022-10-11T19:49:17.579Z,85.90
2022-10-11T19:51:45.877Z,85.76
2022-10-11T19:54:16.024Z,85.25
2022-10-11T19:56:45.917Z,85.64
2022-10-11T19:59:14.616Z,85.43
2022-10-11T20:01:45.505Z,85.71
2022-10-11T20:04:39.693Z,86.10
2022-10-11T20:07:05.046Z,86.04
2022-10-11T20:09:33.897Z,86.04
2022-10-11T20:12:03.237Z,86.33
2022-10-11T20:14:31.282Z,86.26
2022-10-11T20:16:59.286Z,86.34
2022-10-11T20:19:31.328Z,86.42
2022-10-11T20:22:00.291Z,86.62
2022-10-11T20:24:32.695Z,86.22
2022-10-11T20:27:03.946Z,86.87
2022-10-11T20:29:32.226Z,86.84
2022-10-11T20:32:00.250Z,86.84
2022-10-11T20:34:28.841Z,87.01
2022-10-11T20:36:56.853Z,86.72
2022-10-11T20:39:25.433Z,87.01
2022-10-11T20:41:53.746Z,86.60
2022-10-11T20:44:23.235Z,86.91
2022-10-11T20:46:51.427Z,87.08
2022-10-11T20:49:20.743Z,86.96
2022-10-11T20:51:49.492Z,86.75
2022-10-11T20:54:17.814Z,86.92
2022-10-11T20:56:46.279Z,86.94
2022-10-11T20:59:14.403Z,86.79
2022-10-11T21:01:45.183Z,86.85
2022-10-11T21:04:18.728Z,87.20
2022-10-11T21:06:47.564Z,87.02
2022-10-11T21:09:16.872Z,87.49
2022-10-11T21:11:45.252Z,87.09
2022-10-11T21:14:13.712Z,87.12
2022-10-11T21:16:43.227Z,87.73
2022-10-11T21:19:14.469Z,87.38
2022-10-11T21:21:44.560Z,87.49
2022-10-11T21:24:14.229Z,87.71
2022-10-11T21:26:42.330Z,87.75
2022-10-11T21:29:10.569Z,87.82
2022-10-11T21:31:38.709Z,87.98
2022-10-11T21:34:08.457Z,87.52
2022-10-11T21:36:36.757Z,87.97
2022-10-11T21:39:04.905Z,87.91
2022-10-11T21:41:34.035Z,88.25
2022-10-11T21:44:02.654Z,88.04
2022-10-11T21:47:01.127Z,88.61
2022-10-11T21:49:21.906Z,88.53
2022-10-11T21:51:50.185Z,88.49
2022-10-11T21:54:18.805Z,88.95
2022-10-11T21:56:46.896Z,89.28
2022-10-11T21:59:15.073Z,89.38
2022-10-11T22:01:44.506Z,90.11
2022-10-11T22:04:13.017Z,89.85
2022-10-11T22:06:42.481Z,90.14
2022-10-11T22:09:10.692Z,89.94
2022-10-11T22:11:38.818Z,90.64
2022-10-11T22:14:07.045Z,90.47
2022-10-11T22:16:36.190Z,90.78
2022-10-11T22:19:04.400Z,90.95
2022-10-11T22:21:32.526Z,90.85
2022-10-11T22:24:01.971Z,91.28
2022-10-11T22:26:32.232Z,91.15
2022-10-11T22:29:00.748Z,91.35
2022-10-11T22:31:30.127Z,91.34
2022-10-11T22:34:01.200Z,91.51
2022-10-11T22:36:30.941Z,91.77
2022-10-11T22:38:59.270Z,91.49
2022-10-11T22:41:28.825Z,91.97
2022-10-11T22:43:58.096Z,91.60
2022-10-11T22:46:26.347Z,92.17
2022-10-11T22:48:54.463Z,92.38
2022-10-11T22:51:22.807Z,92.14
2022-10-11T22:53:54.318Z,92.59
2022-10-11T22:56:23.304Z,92.54
2022-10-11T22:58:53.555Z,92.29
2022-10-11T23:01:21.681Z,92.61
2022-10-11T23:03:50.629Z,92.84
2022-10-11T23:06:19.009Z,92.57
2022-10-11T23:08:47.141Z,92.75
2022-10-11T23:11:15.200Z,92.72
2022-10-11T23:13:43.242Z,92.40
2022-10-11T23:16:14.137Z,92.60
2022-10-11T23:18:42.705Z,92.75
2022-10-11T23:21:11.142Z,93.09
2022-10-11T23:23:39.841Z,92.92
2022-10-11T23:26:11.804Z,93.34
2022-10-11T23:28:40.018Z,92.79
2022-10-11T23:31:10.310Z,93.23
2022-10-11T23:33:40.295Z,92.81
2022-10-11T23:36:15.301Z,92.73
2022-10-11T23:38:43.299Z,92.78
2022-10-11T23:41:11.408Z,92.42
2022-10-11T23:43:39.441Z,92.35
2022-10-11T23:46:07.527Z,92.11
2022-10-11T23:48:35.628Z,91.89
2022-10-11T23:51:05.167Z,91.87
2022-10-11T23:53:33.430Z,91.88
2022-10-11T23:56:01.536Z,91.85
2022-10-11T23:58:30.350Z,91.41
